Main page
METAR-TAF:

METAR-TAF

Airports :

Islay Airport

Islay, Scotland

latitude: 55-40-55N, longitude: 006-15-24W, elevation: 16 m

Current weather observation

The report was made 19 minutes ago, at 00:20 UTC
Wind 5 kt from the Southeast
Temperature 8°C
Humidity 93%
Pressure 1025 hPa
Visibility 10 km or more

METAR: EGPI 240020Z AUTO 14005KT 9999 NCD 08/07 Q1025

Time: 01:39 (00:39 UTC)

Forecast

The report was made 10 hours and 40 minutes ago, at 13:59 UTC
Forecast valid from 23 at 15 UTC to 23 at 18 UTC
Wind 9 kt from the South/Southeast
Visibility 10 km or more
no clouds below 1500 m and no cumulonimbus

TAF: EGPI 231359Z 2315/2318 15009KT CAVOK

Weather observations and forecasts of more than 4000 airports (METAR and TAF reports).

The available stations are represented by yellow and red dots on the map.

Hover mouse over dot to see the name of the station.

Then click to see weather observations and forecasts.

To change the map : click on the green buttons with a black cross to zoom in, on the green button with a dash to zoom out, or on the green arrows for adjacent maps.


METAR-TAF: